createdAt,value
2022-09-02T05:50:25.341Z,21.889999
2022-09-02T05:51:34.907Z,21.889999
2022-09-02T05:52:44.498Z,21.889999
2022-09-02T05:53:54.095Z,21.879999
2022-09-02T05:55:01.678Z,21.879999
2022-09-02T05:56:11.259Z,21.879999
2022-09-02T05:57:18.827Z,21.879999
2022-09-02T05:58:27.460Z,21.879999
2022-09-02T05:59:37.044Z,21.879999
2022-09-02T06:00:45.603Z,21.889999
2022-09-02T06:01:55.243Z,21.889999
2022-09-02T06:03:03.784Z,21.9
2022-09-02T06:04:12.340Z,21.91
2022-09-02T06:05:21.905Z,21.92
2022-09-02T06:06:30.462Z,21.93
2022-09-02T06:07:40.053Z,21.940001
2022-09-02T06:08:49.609Z,21.959999
2022-09-02T06:09:57.195Z,21.969999
2022-09-02T06:11:06.770Z,21.98
2022-09-02T06:12:15.382Z,21.99
2022-09-02T06:13:25.034Z,22
2022-09-02T06:14:33.560Z,22.01
2022-09-02T06:15:41.188Z,22.02
2022-09-02T06:16:50.720Z,22.030001
2022-09-02T06:17:58.282Z,22.040001
2022-09-02T06:19:07.836Z,22.049999
2022-09-02T06:20:18.386Z,22.049999
2022-09-02T06:21:25.946Z,22.059999
2022-09-02T06:22:35.518Z,22.07
2022-09-02T06:23:45.095Z,22.08
2022-09-02T06:24:52.657Z,22.08
2022-09-02T06:26:02.274Z,22.09
2022-09-02T06:27:09.867Z,22.1
2022-09-02T06:28:18.430Z,22.1
2022-09-02T06:29:27.988Z,22.1
2022-09-02T06:30:35.542Z,22.110001
2022-09-02T06:31:45.123Z,22.110001
2022-09-02T06:32:54.691Z,22.120001
2022-09-02T06:34:02.247Z,22.120001
2022-09-02T06:35:11.819Z,22.120001
2022-09-02T06:36:20.441Z,22.120001
2022-09-02T06:37:29.999Z,22.120001
2022-09-02T06:38:42.610Z,22.120001
2022-09-02T06:39:49.140Z,22.120001
2022-09-02T06:40:58.709Z,22.129999
2022-09-02T06:42:07.330Z,22.129999
2022-09-02T06:43:14.869Z,22.129999
2022-09-02T06:44:24.501Z,22.129999
2022-09-02T06:45:34.291Z,22.129999
2022-09-02T06:46:42.853Z,22.129999
2022-09-02T06:47:53.422Z,22.129999
2022-09-02T06:49:00.980Z,22.139999
2022-09-02T06:50:10.799Z,22.139999
2022-09-02T06:51:19.383Z,22.139999
2022-09-02T06:52:26.953Z,22.139999
2022-09-02T06:53:36.551Z,22.139999
2022-09-02T06:54:44.165Z,22.15
2022-09-02T06:55:52.725Z,22.15
2022-09-02T06:57:02.342Z,22.15
2022-09-02T06:58:10.919Z,22.15
2022-09-02T06:59:20.515Z,22.16
2022-09-02T07:00:29.170Z,22.16
2022-09-02T07:01:37.819Z,22.16
2022-09-02T07:02:47.351Z,22.16
2022-09-02T07:03:55.927Z,22.16
2022-09-02T07:05:04.518Z,22.16
2022-09-02T07:06:14.165Z,22.17
2022-09-02T07:07:22.739Z,22.17
2022-09-02T07:08:32.368Z,22.17
2022-09-02T07:09:41.995Z,22.17
2022-09-02T07:10:50.601Z,22.17
2022-09-02T07:12:04.159Z,22.17
2022-09-02T07:13:09.802Z,22.18
2022-09-02T07:14:18.374Z,22.18
2022-09-02T07:15:27.937Z,22.18
2022-09-02T07:16:37.568Z,22.18
2022-09-02T07:17:47.086Z,22.18
2022-09-02T07:18:55.668Z,22.18
2022-09-02T07:20:03.284Z,22.190001
2022-09-02T07:21:12.861Z,22.190001
2022-09-02T07:22:20.450Z,22.190001
2022-09-02T07:23:29.028Z,22.190001
2022-09-02T07:24:39.590Z,22.200001
2022-09-02T07:25:47.213Z,22.200001
2022-09-02T07:26:56.077Z,22.200001
2022-09-02T07:28:04.435Z,22.200001
2022-09-02T07:29:12.995Z,22.209999
2022-09-02T07:30:21.602Z,22.209999
2022-09-02T07:31:29.142Z,22.209999
2022-09-02T07:32:37.682Z,22.209999
2022-09-02T07:33:49.798Z,22.209999
2022-09-02T07:34:54.934Z,22.209999
2022-09-02T07:36:04.521Z,22.209999
2022-09-02T07:37:13.055Z,22.219999
2022-09-02T07:38:20.610Z,22.219999
2022-09-02T07:39:30.188Z,22.219999
2022-09-02T07:40:37.861Z,22.219999
2022-09-02T07:41:46.380Z,22.23
2022-09-02T07:44:03.491Z,22.24
2022-09-02T07:45:13.069Z,22.24
2022-09-02T07:46:22.727Z,22.25
2022-09-02T07:47:31.195Z,22.25
2022-09-02T07:48:40.762Z,22.26
2022-09-02T07:50:58.857Z,22.27
2022-09-02T07:52:08.433Z,22.27
2022-09-02T07:53:15.988Z,22.27
2022-09-02T07:54:25.557Z,22.280001
2022-09-02T07:55:35.150Z,22.280001
2022-09-02T07:56:43.712Z,22.280001
2022-09-02T07:57:53.284Z,22.280001
2022-09-02T07:59:01.836Z,22.290001
2022-09-02T08:00:10.401Z,22.290001
2022-09-02T08:01:23.278Z,22.299999
2022-09-02T08:02:28.586Z,22.299999
2022-09-02T08:03:38.103Z,22.309999
2022-09-02T08:04:47.680Z,22.309999
2022-09-02T08:05:55.245Z,22.32
2022-09-02T08:07:04.797Z,22.32
2022-09-02T08:08:12.345Z,22.33
2022-09-02T08:09:20.929Z,22.33
2022-09-02T08:10:29.512Z,22.34
2022-09-02T08:11:38.088Z,22.35
2022-09-02T08:12:47.692Z,22.35
2022-09-02T08:13:56.272Z,22.360001
2022-09-02T08:15:05.904Z,22.370001
2022-09-02T08:16:14.486Z,22.370001
2022-09-02T08:17:23.036Z,22.379999
2022-09-02T08:18:32.617Z,22.389999
2022-09-02T08:19:41.173Z,22.389999
2022-09-02T08:20:49.788Z,22.4
2022-09-02T08:21:59.445Z,22.4
2022-09-02T08:23:11.922Z,22.41
2022-09-02T08:24:17.581Z,22.42
2022-09-02T08:25:27.192Z,22.42
2022-09-02T08:26:34.766Z,22.43
2022-09-02T08:27:44.381Z,22.43
2022-09-02T08:28:52.947Z,22.440001
2022-09-02T08:30:01.502Z,22.440001
2022-09-02T08:31:11.044Z,22.450001
2022-09-02T08:32:18.598Z,22.450001
2022-09-02T08:33:28.169Z,22.459999
2022-09-02T08:34:36.718Z,22.469999
2022-09-02T08:35:45.361Z,22.469999
2022-09-02T08:36:56.467Z,22.48
2022-09-02T08:38:03.734Z,22.48
2022-09-02T08:39:13.321Z,22.49
2022-09-02T08:40:22.926Z,22.49
2022-09-02T08:41:30.490Z,22.49
2022-09-02T08:42:40.044Z,22.5
2022-09-02T08:43:49.567Z,22.51
2022-09-02T08:44:57.131Z,22.51
2022-09-02T08:46:06.840Z,22.52
2022-09-02T08:47:14.330Z,22.530001
2022-09-02T08:48:22.850Z,22.530001
2022-09-02T08:49:32.409Z,22.540001
2022-09-02T08:50:40.994Z,22.540001
2022-09-02T08:51:50.930Z,22.549999
2022-09-02T08:53:01.058Z,22.549999
2022-09-02T08:54:09.625Z,22.559999
2022-09-02T08:55:19.196Z,22.57
2022-09-02T08:56:27.745Z,22.58
2022-09-02T08:57:37.318Z,22.58
2022-09-02T08:58:46.845Z,22.59
2022-09-02T08:59:56.523Z,22.6
2022-09-02T09:01:06.234Z,22.6
2022-09-02T09:02:17.670Z,22.610001
2022-09-02T09:03:23.330Z,22.620001
2022-09-02T09:04:32.774Z,22.629999
2022-09-02T09:05:41.349Z,22.639999
2022-09-02T09:06:50.905Z,22.65
2022-09-02T09:08:00.470Z,22.65
2022-09-02T09:09:10.005Z,22.66
2022-09-02T09:10:19.605Z,22.67
2022-09-02T09:11:29.171Z,22.68
2022-09-02T09:12:36.721Z,22.68
2022-09-02T09:13:45.269Z,22.690001
2022-09-02T09:14:52.805Z,22.700001
2022-09-02T09:16:01.415Z,22.700001
2022-09-02T09:17:10.964Z,22.709999
2022-09-02T09:18:18.555Z,22.719999
2022-09-02T09:19:28.079Z,22.719999
2022-09-02T09:20:36.670Z,22.73
2022-09-02T09:21:46.228Z,22.74
2022-09-02T09:22:55.788Z,22.74
2022-09-02T09:24:04.334Z,22.75
2022-09-02T09:25:12.903Z,22.75
2022-09-02T09:26:22.446Z,22.76
2022-09-02T09:27:29.978Z,22.76
2022-09-02T09:28:39.529Z,22.77
2022-09-02T09:29:48.077Z,22.780001
2022-09-02T09:30:56.656Z,22.780001
2022-09-02T09:32:06.261Z,22.790001
2022-09-02T09:33:13.834Z,22.790001
2022-09-02T09:34:22.345Z,22.799999
2022-09-02T09:35:31.938Z,22.799999
2022-09-02T09:36:40.510Z,22.809999
2022-09-02T09:37:50.064Z,22.82
2022-09-02T09:38:58.616Z,22.82
2022-09-02T09:40:07.283Z,22.83
2022-09-02T09:41:16.802Z,22.84
2022-09-02T09:42:26.373Z,22.85
2022-09-02T09:43:35.000Z,22.85
2022-09-02T09:44:44.719Z,22.860001
2022-09-02T09:45:52.203Z,22.860001
2022-09-02T09:47:01.762Z,22.870001
2022-09-02T09:48:10.313Z,22.879999
2022-09-02T09:49:17.896Z,22.879999
2022-09-02T09:50:27.485Z,22.889999
2022-09-02T09:51:43.208Z,22.9
2022-09-02T09:52:45.571Z,22.9
2022-09-02T09:53:55.123Z,22.91
2022-09-02T09:55:02.696Z,22.92
2022-09-02T09:56:12.244Z,22.92
2022-09-02T09:57:21.514Z,22.93
2022-09-02T09:58:31.338Z,22.940001
2022-09-02T09:59:40.909Z,22.940001
2022-09-02T10:00:48.542Z,22.959999
2022-09-02T10:01:58.946Z,22.969999
2022-09-02T10:03:08.531Z,22.969999
2022-09-02T10:04:32.593Z,22.98
2022-09-02T10:05:27.655Z,22.99
2022-09-02T10:06:35.194Z,23
2022-09-02T10:07:45.132Z,23.01
2022-09-02T10:08:53.303Z,23.01
2022-09-02T10:10:00.868Z,23.02
2022-09-02T10:11:10.419Z,23.030001
2022-09-02T10:12:18.984Z,23.040001
2022-09-02T10:13:27.523Z,23.049999
2022-09-02T10:14:36.098Z,23.049999
2022-09-02T10:15:43.660Z,23.059999
2022-09-02T10:16:53.252Z,23.059999
2022-09-02T10:18:02.762Z,23.07
2022-09-02T10:19:11.338Z,23.08
2022-09-02T10:20:20.881Z,23.08
2022-09-02T10:21:28.421Z,23.08
2022-09-02T10:22:37.756Z,23.09
2022-09-02T10:23:47.495Z,23.09
2022-09-02T10:24:55.056Z,23.09
2022-09-02T10:26:04.643Z,23.09
2022-09-02T10:27:12.230Z,23.1
2022-09-02T10:28:19.782Z,23.1
2022-09-02T10:29:29.363Z,23.110001
2022-09-02T10:30:36.914Z,23.110001
2022-09-02T10:31:46.540Z,23.110001
2022-09-02T10:32:56.022Z,23.120001
2022-09-02T10:34:03.578Z,23.120001
2022-09-02T10:35:13.138Z,23.129999
2022-09-02T10:36:25.214Z,23.129999
2022-09-02T10:37:30.221Z,23.139999
2022-09-02T10:38:39.781Z,23.139999
2022-09-02T10:39:47.343Z,23.139999
2022-09-02T10:40:56.916Z,23.15
2022-09-02T10:42:06.444Z,23.15
2022-09-02T10:43:14.025Z,23.15
2022-09-02T10:44:23.569Z,23.16
2022-09-02T10:45:32.108Z,23.16
2022-09-02T10:46:39.673Z,23.16
2022-09-02T10:47:49.263Z,23.17
2022-09-02T10:48:56.776Z,23.17
2022-09-02T10:50:05.332Z,23.17
2022-09-02T10:51:14.926Z,23.18
2022-09-02T10:52:22.498Z,23.18
2022-09-02T10:53:32.046Z,23.190001
2022-09-02T10:54:40.632Z,23.190001
2022-09-02T10:55:48.174Z,23.200001
2022-09-02T10:56:57.791Z,23.200001
2022-09-02T10:58:07.351Z,23.209999
2022-09-02T10:59:15.912Z,23.209999
2022-09-02T11:00:25.461Z,23.219999
2022-09-02T11:01:33.018Z,23.219999
2022-09-02T11:02:42.565Z,23.23
2022-09-02T11:03:51.255Z,23.24
2022-09-02T11:04:58.748Z,23.24
2022-09-02T11:06:08.296Z,23.24
2022-09-02T11:07:16.850Z,23.24
2022-09-02T11:08:30.972Z,23.25
2022-09-02T11:09:35.935Z,23.25
2022-09-02T11:10:44.471Z,23.25
2022-09-02T11:11:55.869Z,23.26
2022-09-02T11:13:03.551Z,23.26
2022-09-02T11:14:13.122Z,23.27
2022-09-02T11:15:22.645Z,23.280001
2022-09-02T11:16:29.316Z,23.290001
2022-09-02T11:17:37.757Z,23.290001
2022-09-02T11:18:47.319Z,23.299999
2022-09-02T11:19:55.857Z,23.309999
2022-09-02T11:21:05.390Z,23.309999
2022-09-02T11:22:13.923Z,23.32
2022-09-02T11:23:22.631Z,23.32
2022-09-02T11:24:32.016Z,23.32
2022-09-02T11:25:40.545Z,23.32
2022-09-02T11:26:49.165Z,23.32
2022-09-02T11:27:58.708Z,23.32
2022-09-02T11:29:06.267Z,23.32
2022-09-02T11:30:15.814Z,23.32
2022-09-02T11:31:24.347Z,23.32
2022-09-02T11:32:33.883Z,23.32
2022-09-02T11:33:43.437Z,23.32
2022-09-02T11:34:50.975Z,23.32
2022-09-02T11:35:59.521Z,23.32
2022-09-02T11:37:09.069Z,23.32
2022-09-02T11:38:17.589Z,23.32
2022-09-02T11:39:36.387Z,23.32
2022-09-02T11:40:38.884Z,23.32
2022-09-02T11:41:45.264Z,23.32
2022-09-02T11:42:54.771Z,23.32
2022-09-02T11:44:02.323Z,23.33
2022-09-02T11:45:11.932Z,23.34
2022-09-02T11:46:21.525Z,23.34
2022-09-02T11:47:28.971Z,23.35
2022-09-02T11:48:38.509Z,23.35
2022-09-02T11:49:48.077Z,23.35
2022-09-02T11:50:55.637Z,23.35
2022-09-02T11:52:05.250Z,23.35
2022-09-02T11:53:13.872Z,23.35
2022-09-02T11:54:22.415Z,23.35
2022-09-02T11:55:31.956Z,23.34
2022-09-02T11:56:39.486Z,23.34
2022-09-02T11:57:49.008Z,23.34
2022-09-02T11:58:59.535Z,23.35
2022-09-02T12:00:08.077Z,23.35
2022-09-02T12:01:19.086Z,23.35
2022-09-02T12:02:27.122Z,23.35
2022-09-02T12:03:46.780Z,23.35
2022-09-02T12:04:59.667Z,23.360001
2022-09-02T12:05:56.797Z,23.360001
2022-09-02T12:07:08.447Z,23.370001
2022-09-02T12:08:14.729Z,23.370001
2022-09-02T12:09:24.287Z,23.379999
2022-09-02T12:10:33.847Z,23.389999
2022-09-02T12:11:42.382Z,23.389999
2022-09-02T12:12:52.088Z,23.4
2022-09-02T12:14:00.843Z,23.41
2022-09-02T12:15:09.008Z,23.42
2022-09-02T12:16:18.624Z,23.42
2022-09-02T12:17:26.140Z,23.43
2022-09-02T12:18:35.672Z,23.440001
2022-09-02T12:19:44.232Z,23.450001
2022-09-02T12:20:51.760Z,23.459999
2022-09-02T12:22:01.314Z,23.469999
2022-09-02T12:23:08.880Z,23.469999
2022-09-02T12:24:17.424Z,23.48
2022-09-02T12:25:27.318Z,23.49
2022-09-02T12:26:35.513Z,23.5
2022-09-02T12:27:45.178Z,23.51
2022-09-02T12:28:53.741Z,23.52
2022-09-02T12:30:03.272Z,23.530001
2022-09-02T12:31:12.901Z,23.540001
2022-09-02T12:32:21.427Z,23.549999
2022-09-02T12:33:29.969Z,23.57
2022-09-02T12:34:39.546Z,23.58
2022-09-02T12:35:47.101Z,23.6
2022-09-02T12:36:56.623Z,23.620001
2022-09-02T12:38:05.171Z,23.639999
2022-09-02T12:39:12.725Z,23.66
2022-09-02T12:40:22.393Z,23.67
2022-09-02T12:41:30.774Z,23.690001
2022-09-02T12:42:39.306Z,23.709999
2022-09-02T12:43:48.829Z,23.719999
2022-09-02T12:44:56.356Z,23.73
2022-09-02T12:46:05.966Z,23.74
2022-09-02T12:47:15.431Z,23.76
2022-09-02T12:48:24.929Z,23.77
2022-09-02T12:49:33.523Z,23.780001
2022-09-02T12:50:41.065Z,23.790001
2022-09-02T12:51:49.590Z,23.799999
2022-09-02T12:52:58.140Z,23.809999
2022-09-02T12:54:06.672Z,23.809999
2022-09-02T12:55:16.213Z,23.82
2022-09-02T12:56:24.737Z,23.82
2022-09-02T12:57:32.272Z,23.82
2022-09-02T12:58:41.879Z,23.83
2022-09-02T12:59:50.401Z,23.83
2022-09-02T13:00:59.010Z,23.84
2022-09-02T13:02:08.551Z,23.84
2022-09-02T13:03:17.205Z,23.84
2022-09-02T13:04:26.655Z,23.85
2022-09-02T13:05:36.414Z,23.85
2022-09-02T13:06:44.553Z,23.85
2022-09-02T13:07:53.508Z,23.85
2022-09-02T13:09:03.010Z,23.84
2022-09-02T13:10:11.547Z,23.84
2022-09-02T13:11:22.079Z,23.84
2022-09-02T13:12:29.627Z,23.83
2022-09-02T13:13:39.171Z,23.83
2022-09-02T13:14:47.761Z,23.83
2022-09-02T13:15:55.314Z,23.82
2022-09-02T13:17:13.808Z,23.82
2022-09-02T13:18:15.402Z,23.82
2022-09-02T13:19:22.985Z,23.82
2022-09-02T13:20:32.549Z,23.82
2022-09-02T13:21:40.086Z,23.82
2022-09-02T13:22:49.669Z,23.809999
2022-09-02T13:23:58.235Z,23.809999
2022-09-02T13:25:05.825Z,23.809999
2022-09-02T13:26:23.031Z,23.799999
2022-09-02T13:27:25.847Z,23.799999
2022-09-02T13:28:34.412Z,23.799999
2022-09-02T13:29:43.942Z,23.799999
2022-09-02T13:30:52.498Z,23.790001
2022-09-02T13:32:02.044Z,23.790001
2022-09-02T13:33:10.644Z,23.780001
2022-09-02T13:34:18.192Z,23.780001
2022-09-02T13:35:27.740Z,23.77
2022-09-02T13:36:36.278Z,23.76
2022-09-02T13:37:45.523Z,23.76
2022-09-02T13:38:54.405Z,23.75
2022-09-02T13:40:02.373Z,23.74
2022-09-02T13:41:12.039Z,23.73
2022-09-02T13:42:20.635Z,23.73
2022-09-02T13:43:31.217Z,23.719999
2022-09-02T13:44:40.928Z,23.719999
2022-09-02T13:45:48.426Z,23.709999
2022-09-02T13:46:56.982Z,23.709999
2022-09-02T13:48:06.528Z,23.709999
2022-09-02T13:49:17.238Z,23.700001
2022-09-02T13:50:26.880Z,23.700001
2022-09-02T13:51:37.417Z,23.690001
2022-09-02T13:53:34.878Z,23.690001
2022-09-02T13:55:08.090Z,23.68
2022-09-02T13:56:16.638Z,23.68
2022-09-02T13:57:26.210Z,23.67
2022-09-02T13:58:34.751Z,23.67
2022-09-02T13:59:44.431Z,23.67
2022-09-02T14:00:53.201Z,23.66
2022-09-02T14:02:03.670Z,23.65
2022-09-02T14:03:13.384Z,23.65
2022-09-02T14:04:21.758Z,23.65
2022-09-02T14:05:31.397Z,23.639999
2022-09-02T14:06:39.247Z,23.639999
2022-09-02T14:07:47.837Z,23.639999
2022-09-02T14:08:57.407Z,23.629999
2022-09-02T14:10:05.001Z,23.629999
2022-09-02T14:11:15.690Z,23.620001
2022-09-02T14:12:23.799Z,23.610001
2022-09-02T14:13:32.374Z,23.6
2022-09-02T14:14:41.970Z,23.59
2022-09-02T14:15:49.674Z,23.58
2022-09-02T14:16:58.332Z,23.58
2022-09-02T14:18:07.995Z,23.57
2022-09-02T14:19:17.533Z,23.559999
2022-09-02T14:20:27.100Z,23.559999
2022-09-02T14:21:35.659Z,23.549999
2022-09-02T14:22:45.273Z,23.540001
2022-09-02T14:23:54.918Z,23.540001
2022-09-02T14:25:02.497Z,23.530001
2022-09-02T14:26:11.095Z,23.52
2022-09-02T14:27:20.658Z,23.52
2022-09-02T14:28:29.232Z,23.51
2022-09-02T14:29:39.519Z,23.51
2022-09-02T14:30:48.073Z,23.5
2022-09-02T14:31:57.817Z,23.5
2022-09-02T14:33:07.409Z,23.5
2022-09-02T14:34:14.988Z,23.5
2022-09-02T14:35:22.964Z,23.5
2022-09-02T14:36:35.248Z,23.5
2022-09-02T14:37:50.906Z,23.51
2022-09-02T14:38:59.481Z,23.51
2022-09-02T14:40:08.744Z,23.51
2022-09-02T14:41:17.343Z,23.51
2022-09-02T14:42:29.289Z,23.51
2022-09-02T14:43:37.447Z,23.51
2022-09-02T14:44:47.008Z,23.51
2022-09-02T14:45:57.307Z,23.51
2022-09-02T14:47:04.894Z,23.5
2022-09-02T14:48:13.484Z,23.5
2022-09-02T14:49:23.117Z,23.49
2022-09-02T14:50:31.672Z,23.48
2022-09-02T14:51:41.264Z,23.469999
2022-09-02T14:52:48.823Z,23.459999
2022-09-02T14:53:57.413Z,23.459999
2022-09-02T14:55:07.039Z,23.450001
2022-09-02T14:56:14.643Z,23.440001
2022-09-02T14:57:24.330Z,23.440001
2022-09-02T14:58:33.951Z,23.440001
2022-09-02T14:59:42.503Z,23.440001
2022-09-02T15:00:52.918Z,23.450001
2022-09-02T15:02:02.413Z,23.450001
2022-09-02T15:03:11.664Z,23.450001
2022-09-02T15:04:21.256Z,23.450001
2022-09-02T15:05:28.930Z,23.450001
2022-09-02T15:06:38.508Z,23.459999
2022-09-02T15:07:47.080Z,23.459999
2022-09-02T15:08:56.640Z,23.459999
2022-09-02T15:10:06.195Z,23.459999
2022-09-02T15:11:13.776Z,23.459999
2022-09-02T15:12:23.510Z,23.459999
2022-09-02T15:13:33.079Z,23.459999
2022-09-02T15:14:41.662Z,23.459999
2022-09-02T15:15:51.269Z,23.459999
2022-09-02T15:16:59.902Z,23.459999
2022-09-02T15:18:08.937Z,23.459999
2022-09-02T15:19:17.085Z,23.459999
2022-09-02T15:20:24.639Z,23.450001
2022-09-02T15:21:33.215Z,23.450001
2022-09-02T15:22:42.776Z,23.450001
2022-09-02T15:23:51.245Z,23.459999
2022-09-02T15:24:59.986Z,23.459999
2022-09-02T15:26:08.627Z,23.459999
2022-09-02T15:27:17.246Z,23.469999
2022-09-02T15:28:25.762Z,23.469999
2022-09-02T15:29:33.374Z,23.469999
2022-09-02T15:30:42.014Z,23.469999
2022-09-02T15:31:51.596Z,23.469999
2022-09-02T15:33:00.118Z,23.469999
2022-09-02T15:34:09.721Z,23.469999
2022-09-02T15:35:19.307Z,23.469999
2022-09-02T15:36:27.936Z,23.469999
2022-09-02T15:37:37.552Z,23.469999
2022-09-02T15:38:45.298Z,23.469999
2022-09-02T15:39:54.859Z,23.459999
2022-09-02T15:41:04.460Z,23.459999
2022-09-02T15:42:12.072Z,23.459999
2022-09-02T15:43:21.657Z,23.459999
2022-09-02T15:44:31.353Z,23.459999
2022-09-02T15:45:38.924Z,23.459999
2022-09-02T15:46:48.604Z,23.459999
2022-09-02T15:47:56.134Z,23.459999
2022-09-02T15:49:03.723Z,23.459999
2022-09-02T15:50:14.277Z,23.459999
2022-09-02T15:51:21.925Z,23.459999
2022-09-02T15:52:30.477Z,23.459999
2022-09-02T15:53:39.266Z,23.450001
2022-09-02T15:54:46.719Z,23.459999
2022-09-02T15:55:56.341Z,23.459999
2022-09-02T15:57:05.093Z,23.459999
2022-09-02T15:58:14.649Z,23.459999
2022-09-02T15:59:24.310Z,23.459999
2022-09-02T16:00:30.870Z,23.459999
2022-09-02T16:01:40.513Z,23.459999
2022-09-02T16:02:48.104Z,23.469999
2022-09-02T16:03:57.605Z,23.469999
2022-09-02T16:05:06.180Z,23.469999
2022-09-02T16:06:14.778Z,23.469999
2022-09-02T16:07:24.417Z,23.469999
2022-09-02T16:08:32.165Z,23.469999
2022-09-02T16:09:41.743Z,23.469999
2022-09-02T16:10:51.372Z,23.459999
2022-09-02T16:11:59.016Z,23.459999
2022-09-02T16:13:08.559Z,23.459999
2022-09-02T16:14:20.829Z,23.450001
2022-09-02T16:15:24.741Z,23.450001
2022-09-02T16:16:35.375Z,23.450001
2022-09-02T16:17:44.104Z,23.440001
2022-09-02T16:18:52.713Z,23.440001
2022-09-02T16:20:02.291Z,23.450001
2022-09-02T16:21:09.881Z,23.450001
2022-09-02T16:22:19.471Z,23.450001
2022-09-02T16:23:29.065Z,23.450001
2022-09-02T16:24:36.695Z,23.450001
2022-09-02T16:25:46.280Z,23.459999
2022-09-02T16:26:55.916Z,23.450001
2022-09-02T16:28:04.607Z,23.450001
2022-09-02T16:29:14.291Z,23.450001
2022-09-02T16:30:21.905Z,23.450001
2022-09-02T16:31:32.694Z,23.450001
2022-09-02T16:32:41.145Z,23.450001
2022-09-02T16:33:48.720Z,23.450001
2022-09-02T16:34:58.318Z,23.459999
2022-09-02T16:36:05.942Z,23.469999
